To NAV CANADA Home Page Login to a new session Search on AWWS site Disclaimer Vers la page française équivalente Tips FAQ What's new on the site To the Forecasts and Observations / NOTAM section To "File a Flight Plan" website Publications and other links Update of the User's profile FIC Telephone Numbers My Weather Data Folder Route Weather Data Regional Weather Data Local Weather Data To the Forecasts and Observations / NOTAM section
Request Generated 03/08/2021 at 00:25:06 UTC . Weather information available at that time is displayed.


Go to a specific product

Save this request - Inactive

METAR/TAF

CALGARY/YYC CALGARY INTL/AB    

METAR CYYC 080000Z 28010G16KT 40SM FEW080 FEW190 06/M11 A2980 RMK AC1AC1 SLP135=
METAR CYYC 072300Z 30010KT 40SM SCT080 07/M11 A2980 RMK AC3 SLP133 DENSITY ALT 3700FT=
METAR CYYC 072200Z 24009G19KT 170V290 40SM BKN070 07/M10 A2978 RMK AC5 SLP127 DENSITY ALT 3700FT=

TAF CYYC 072338Z 0800/0824 28010KT P6SM SCT080
FM080600 28008KT P6SM FEW150
FM082100 14006KT P6SM FEW060 SCT150
RMK NXT FCST BY 080300Z=

CALGARY/SPRINGBANK/AB    (show WxCam)

METAR CYBW 080000Z AUTO 30009KT 9SM CLR 04/M08 A2981 RMK SLP142=
METAR CYBW 072300Z AUTO 29010G15KT 9SM FEW086 05/M08 A2980 RMK SLP137=
METAR CYBW 072200Z AUTO 26016G22KT 9SM FEW120 SCT150 BKN170 05/M09 A2978 RMK SLP129=

TAF CYBW 072338Z 0800/0805 26010G20KT P6SM FEW080
BECMG 0801/0803 26008KT
RMK FCST BASED ON AUTO OBS. NXT FCST WILL BE ISSUED AT 081245Z=


GRAPHICAL FA CLOUDS & WEATHER FORECASTS
To the Product Selector
Graphical FA gfacn32      

GRAPHICAL FA ICING, TURBULENCE & FREEZING LEVEL FORECASTS
To the Product Selector
Graphical FA gfacn32      

Your time UTC time
Weather data provided by Environment Canada and NAV CANADA